PWSweather.com
Personal Weather Stations
Station Observations
BREAKEY01
Lévis, Breakeyville, QC G0S 1E1

LévisBreakeyville, QC G0S 1E1

Lat: 46.681, Lon: -71.224

Elevation: 328

Station Type: Davis Vantage Pro2

http://www.meteobreakey.webou.net/topic/index.php

Latest ConditionsUpdated 3:57:04 AM EDT Wednesday, Oct 22, 2014
Currently Today's Max Today's Min Today's Average
Temperature 42.8°F6.0°C 43.5°F6.4°C 42.6°F5.9°C 43.1°F6.2°C
Dew Point 37.0°F2.8°C 37.0°F2.8°C 34.7°F1.5°C 36.0°F2.2°C
Winds 11.0 mph ENE17.7 kmh ENE 12.1 mph ENE19.5 kmh ENE - 9.7 mph 15.6 kmh
Wind Gusts 10.1 mph16.3 kmh 17.0 mph27.4 kmh - -
Humidity 80% 80% 71% 76%
Pressure 30.29 in1025.7 mb 30.30 in1026.1 mb 30.28 in1025.4 mb -
Hour Temp Dew Point Humidity Winds Wind Gusts Pressure Precip Precip Rate Daily Precip Total
03:57 AM 42.8°F6.0°C 37.0°F2.8°C 80% 11.0 mph ENE17.7 kmh ENE 10.1 mph16.3 kmh 30.29 in1025.7 mb 0.00 in0.0 mm 0.00 in/hr0.0 mm/hr 0.00 in0.0 mm
03:52 AM 42.6°F5.9°C 36.9°F2.7°C 80% 10.1 mph E16.3 kmh E 12.1 mph19.5 kmh 30.28 in1025.4 mb 0.00 in0.0 mm 0.00 in/hr0.0 mm/hr 0.00 in0.0 mm
03:47 AM 42.6°F5.9°C 36.9°F2.7°C 80% 8.9 mph ENE14.3 kmh ENE 10.1 mph16.3 kmh 30.29 in1025.7 mb 0.00 in0.0 mm 0.00 in/hr0.0 mm/hr 0.00 in0.0 mm
03:42 AM 42.6°F5.9°C 36.9°F2.7°C 80% 8.9 mph ENE14.3 kmh ENE 8.1 mph13.0 kmh 30.29 in1025.7 mb 0.00 in0.0 mm 0.00 in/hr0.0 mm/hr 0.00 in0.0 mm
03:37 AM 42.6°F5.9°C 36.5°F2.5°C 79% 11.0 mph ENE17.7 kmh ENE 8.9 mph14.3 kmh 30.29 in1025.7 mb 0.00 in0.0 mm 0.00 in/hr0.0 mm/hr 0.00 in0.0 mm
03:32 AM 42.6°F5.9°C 36.5°F2.5°C 79% 12.1 mph ENE19.5 kmh ENE 10.1 mph16.3 kmh 30.28 in1025.4 mb 0.00 in0.0 mm 0.00 in/hr0.0 mm/hr 0.00 in0.0 mm
03:27 AM 42.6°F5.9°C 36.5°F2.5°C 79% 10.1 mph ENE16.3 kmh ENE 14.1 mph22.7 kmh 30.28 in1025.4 mb 0.00 in0.0 mm 0.00 in/hr0.0 mm/hr 0.00 in0.0 mm
03:22 AM 42.8°F6.0°C 36.7°F2.6°C 79% 8.9 mph ENE14.3 kmh ENE 10.1 mph16.3 kmh 30.28 in1025.4 mb 0.00 in0.0 mm 0.00 in/hr0.0 mm/hr 0.00 in0.0 mm
03:17 AM 42.8°F6.0°C 36.7°F2.6°C 79% 10.1 mph E16.3 kmh E 6.9 mph11.1 kmh 30.28 in1025.4 mb 0.00 in0.0 mm 0.00 in/hr0.0 mm/hr 0.00 in0.0 mm
03:12 AM 43.0°F6.1°C 36.9°F2.7°C 79% 8.9 mph ESE14.3 kmh ESE 10.1 mph16.3 kmh 30.28 in1025.4 mb 0.00 in0.0 mm 0.00 in/hr0.0 mm/hr 0.00 in0.0 mm
03:07 AM 43.0°F6.1°C 36.9°F2.7°C 79% 8.9 mph ENE14.3 kmh ENE 8.1 mph13.0 kmh 30.28 in1025.4 mb 0.00 in0.0 mm 0.00 in/hr0.0 mm/hr 0.00 in0.0 mm
03:02 AM 43.0°F6.1°C 36.7°F2.6°C 78% 11.0 mph ENE17.7 kmh ENE 6.0 mph9.7 kmh 30.28 in1025.4 mb 0.00 in0.0 mm 0.00 in/hr0.0 mm/hr 0.00 in0.0 mm
02:57 AM 43.0°F6.1°C 36.7°F2.6°C 78% 11.0 mph ENE17.7 kmh ENE 13.0 mph20.9 kmh 30.28 in1025.4 mb 0.00 in0.0 mm 0.00 in/hr0.0 mm/hr 0.00 in0.0 mm
02:52 AM 43.0°F6.1°C 36.7°F2.6°C 78% 8.9 mph NE14.3 kmh NE 13.0 mph20.9 kmh 30.28 in1025.4 mb 0.00 in0.0 mm 0.00 in/hr0.0 mm/hr 0.00 in0.0 mm
02:47 AM 43.0°F6.1°C 36.3°F2.4°C 77% 8.9 mph E14.3 kmh E 6.0 mph9.7 kmh 30.28 in1025.4 mb 0.00 in0.0 mm 0.00 in/hr0.0 mm/hr 0.00 in0.0 mm
02:42 AM 43.0°F6.1°C 36.0°F2.2°C 76% 10.1 mph ENE16.3 kmh ENE 4.9 mph7.9 kmh 30.28 in1025.4 mb 0.00 in0.0 mm 0.00 in/hr0.0 mm/hr 0.00 in0.0 mm
02:37 AM 43.2°F6.2°C 36.1°F2.3°C 76% 8.9 mph ENE14.3 kmh ENE 8.1 mph13.0 kmh 30.28 in1025.4 mb 0.00 in0.0 mm 0.00 in/hr0.0 mm/hr 0.00 in0.0 mm
02:32 AM 43.2°F6.2°C 36.1°F2.3°C 76% 8.9 mph ENE14.3 kmh ENE 8.9 mph14.3 kmh 30.29 in1025.7 mb 0.00 in0.0 mm 0.00 in/hr0.0 mm/hr 0.00 in0.0 mm
02:27 AM 43.2°F6.2°C 36.1°F2.3°C 76% 10.1 mph E16.3 kmh E 8.9 mph14.3 kmh 30.29 in1025.7 mb 0.00 in0.0 mm 0.00 in/hr0.0 mm/hr 0.00 in0.0 mm
02:22 AM 43.2°F6.2°C 36.1°F2.3°C 76% 10.1 mph E16.3 kmh E 10.1 mph16.3 kmh 30.29 in1025.7 mb 0.00 in0.0 mm 0.00 in/hr0.0 mm/hr 0.00 in0.0 mm
02:17 AM 43.2°F6.2°C 36.1°F2.3°C 76% 11.0 mph E17.7 kmh E 6.9 mph11.1 kmh 30.29 in1025.7 mb 0.00 in0.0 mm 0.00 in/hr0.0 mm/hr 0.00 in0.0 mm
02:12 AM 43.2°F6.2°C 36.1°F2.3°C 76% 8.9 mph E14.3 kmh E 8.1 mph13.0 kmh 30.29 in1025.7 mb 0.00 in0.0 mm 0.00 in/hr0.0 mm/hr 0.00 in0.0 mm
02:07 AM 43.2°F6.2°C 36.1°F2.3°C 76% 10.1 mph ENE16.3 kmh ENE 11.0 mph17.7 kmh 30.29 in1025.7 mb 0.00 in0.0 mm 0.00 in/hr0.0 mm/hr 0.00 in0.0 mm
02:02 AM 43.2°F6.2°C 36.1°F2.3°C 76% 11.0 mph ENE17.7 kmh ENE 11.0 mph17.7 kmh 30.28 in1025.4 mb 0.00 in0.0 mm 0.00 in/hr0.0 mm/hr 0.00 in0.0 mm
01:57 AM 43.2°F6.2°C 35.8°F2.1°C 75% 10.1 mph E16.3 kmh E 10.1 mph16.3 kmh 30.28 in1025.4 mb 0.00 in0.0 mm 0.00 in/hr0.0 mm/hr 0.00 in0.0 mm
01:52 AM 43.2°F6.2°C 35.8°F2.1°C 75% 8.9 mph E14.3 kmh E 8.1 mph13.0 kmh 30.28 in1025.4 mb 0.00 in0.0 mm 0.00 in/hr0.0 mm/hr 0.00 in0.0 mm
01:47 AM 43.2°F6.2°C 35.8°F2.1°C 75% 8.1 mph E13.0 kmh E 6.9 mph11.1 kmh 30.28 in1025.4 mb 0.00 in0.0 mm 0.00 in/hr0.0 mm/hr 0.00 in0.0 mm
01:42 AM 43.2°F6.2°C 35.8°F2.1°C 75% 8.9 mph ENE14.3 kmh ENE 11.0 mph17.7 kmh 30.29 in1025.7 mb 0.00 in0.0 mm 0.00 in/hr0.0 mm/hr 0.00 in0.0 mm
01:37 AM 43.2°F6.2°C 35.8°F2.1°C 75% 8.9 mph E14.3 kmh E 12.1 mph19.5 kmh 30.29 in1025.7 mb 0.00 in0.0 mm 0.00 in/hr0.0 mm/hr 0.00 in0.0 mm
01:32 AM 43.2°F6.2°C 35.8°F2.1°C 75% 10.1 mph E16.3 kmh E 6.9 mph11.1 kmh 30.29 in1025.7 mb 0.00 in0.0 mm 0.00 in/hr0.0 mm/hr 0.00 in0.0 mm
01:27 AM 43.2°F6.2°C 35.8°F2.1°C 75% 10.1 mph E16.3 kmh E 8.9 mph14.3 kmh 30.29 in1025.7 mb 0.00 in0.0 mm 0.00 in/hr0.0 mm/hr 0.00 in0.0 mm
01:22 AM 43.2°F6.2°C 35.8°F2.1°C 75% 11.0 mph E17.7 kmh E 8.1 mph13.0 kmh 30.29 in1025.7 mb 0.00 in0.0 mm 0.00 in/hr0.0 mm/hr 0.00 in0.0 mm
01:17 AM 43.3°F6.3°C 36.0°F2.2°C 75% 11.0 mph E17.7 kmh E 4.0 mph6.4 kmh 30.29 in1025.7 mb 0.00 in0.0 mm 0.00 in/hr0.0 mm/hr 0.00 in0.0 mm
01:12 AM 43.3°F6.3°C 35.6°F2.0°C 74% 10.1 mph ENE16.3 kmh ENE 14.1 mph22.7 kmh 30.29 in1025.7 mb 0.00 in0.0 mm 0.00 in/hr0.0 mm/hr 0.00 in0.0 mm
01:07 AM 43.3°F6.3°C 35.2°F1.8°C 73% 10.1 mph NE16.3 kmh NE 17.0 mph27.4 kmh 30.29 in1025.7 mb 0.00 in0.0 mm 0.00 in/hr0.0 mm/hr 0.00 in0.0 mm
01:02 AM 43.3°F6.3°C 35.2°F1.8°C 73% 10.1 mph E16.3 kmh E 10.1 mph16.3 kmh 30.29 in1025.7 mb 0.00 in0.0 mm 0.00 in/hr0.0 mm/hr 0.00 in0.0 mm
12:57 AM 43.3°F6.3°C 35.2°F1.8°C 73% 10.1 mph E16.3 kmh E 11.0 mph17.7 kmh 30.29 in1025.7 mb 0.00 in0.0 mm 0.00 in/hr0.0 mm/hr 0.00 in0.0 mm
12:52 AM 43.3°F6.3°C 35.2°F1.8°C 73% 10.1 mph SE16.3 kmh SE 6.9 mph11.1 kmh 30.30 in1026.1 mb 0.00 in0.0 mm 0.00 in/hr0.0 mm/hr 0.00 in0.0 mm
12:47 AM 43.3°F6.3°C 35.2°F1.8°C 73% 10.1 mph ENE16.3 kmh ENE 8.1 mph13.0 kmh 30.29 in1025.7 mb 0.00 in0.0 mm 0.00 in/hr0.0 mm/hr 0.00 in0.0 mm
12:42 AM 43.3°F6.3°C 35.2°F1.8°C 73% 10.1 mph ESE16.3 kmh ESE 10.1 mph16.3 kmh 30.29 in1025.7 mb 0.00 in0.0 mm 0.00 in/hr0.0 mm/hr 0.00 in0.0 mm
12:37 AM 43.3°F6.3°C 35.6°F2.0°C 74% 8.1 mph E13.0 kmh E 11.0 mph17.7 kmh 30.29 in1025.7 mb 0.00 in0.0 mm 0.00 in/hr0.0 mm/hr 0.00 in0.0 mm
12:32 AM 43.3°F6.3°C 35.6°F2.0°C 74% 8.1 mph NE13.0 kmh NE 4.0 mph6.4 kmh 30.29 in1025.7 mb 0.00 in0.0 mm 0.00 in/hr0.0 mm/hr 0.00 in0.0 mm
12:27 AM 43.3°F6.3°C 35.6°F2.0°C 74% 8.1 mph E13.0 kmh E 4.9 mph7.9 kmh 30.29 in1025.7 mb 0.00 in0.0 mm 0.00 in/hr0.0 mm/hr 0.00 in0.0 mm
12:22 AM 43.3°F6.3°C 35.6°F2.0°C 74% 8.1 mph ENE13.0 kmh ENE 6.0 mph9.7 kmh 30.29 in1025.7 mb 0.00 in0.0 mm 0.00 in/hr0.0 mm/hr 0.00 in0.0 mm
12:17 AM 43.3°F6.3°C 35.2°F1.8°C 73% 10.1 mph E16.3 kmh E 8.1 mph13.0 kmh 30.29 in1025.7 mb 0.00 in0.0 mm 0.00 in/hr0.0 mm/hr 0.00 in0.0 mm
12:12 AM 43.3°F6.3°C 35.2°F1.8°C 73% 10.1 mph E16.3 kmh E 6.9 mph11.1 kmh 30.29 in1025.7 mb 0.00 in0.0 mm 0.00 in/hr0.0 mm/hr 0.00 in0.0 mm
12:07 AM 43.5°F6.4°C 35.1°F1.7°C 72% 8.9 mph E14.3 kmh E 8.1 mph13.0 kmh 30.28 in1025.4 mb 0.00 in0.0 mm 0.00 in/hr0.0 mm/hr 0.00 in0.0 mm
12:02 AM 43.5°F6.4°C 34.7°F1.5°C 71% 8.9 mph NE14.3 kmh NE 6.9 mph11.1 kmh 30.28 in1025.4 mb 0.00 in0.0 mm 0.00 in/hr0.0 mm/hr 0.00 in0.0 mm